createdAt,value
2019-03-22T00:00:55.810Z,101365.69
2019-03-22T00:03:21.745Z,101366.95
2019-03-22T00:05:47.685Z,101365.69
2019-03-22T00:08:13.677Z,101370.05
2019-03-22T00:10:39.780Z,101361.27
2019-03-22T00:13:05.723Z,101365.28
2019-03-22T00:15:31.658Z,101363.06
2019-03-22T00:17:57.646Z,101362.19
2019-03-22T00:20:23.590Z,101365.23
2019-03-22T00:22:49.412Z,101362.61
2019-03-22T00:25:15.540Z,101360.02
2019-03-22T00:27:41.475Z,101363.06
2019-03-22T00:30:08.937Z,101357.37
2019-03-22T00:32:35.137Z,101359.58
2019-03-22T00:35:00.966Z,101349.88
2019-03-22T00:37:26.805Z,101348.10
2019-03-22T00:39:52.819Z,101354.25
2019-03-22T00:42:18.696Z,101350.71
2019-03-22T00:44:44.540Z,101349.83
2019-03-22T00:47:10.397Z,101348.09
2019-03-22T00:49:36.239Z,101345.87
2019-03-22T00:52:02.219Z,101343.69
2019-03-22T00:54:28.032Z,101342.83
2019-03-22T00:56:53.886Z,101338.84
2019-03-22T00:59:19.796Z,101344.06
2019-03-22T01:01:45.653Z,101341.38
2019-03-22T01:04:11.696Z,101341.38
2019-03-22T01:06:37.698Z,101326.45
2019-03-22T01:09:04.512Z,101326.41
2019-03-22T01:11:30.338Z,101323.36
2019-03-22T01:13:56.291Z,101320.22
2019-03-22T01:16:22.156Z,101329.05
2019-03-22T01:18:48.099Z,101328.69
2019-03-22T01:21:14.348Z,101317.72
2019-03-22T01:23:40.158Z,101319.08
2019-03-22T01:26:06.123Z,101314.64
2019-03-22T01:28:32.058Z,101311.54
2019-03-22T01:30:57.912Z,101318.11
2019-03-22T01:33:23.746Z,101309.27
2019-03-22T01:35:49.891Z,101307.94
2019-03-22T01:38:15.730Z,101311.00
2019-03-22T01:40:41.608Z,101311.45
2019-03-22T01:43:07.681Z,101312.26
2019-03-22T01:45:33.623Z,101309.64
2019-03-22T01:47:59.648Z,101305.27
2019-03-22T01:50:25.590Z,101303.53
2019-03-22T01:52:51.431Z,101299.55
2019-03-22T01:55:17.369Z,101303.08
2019-03-22T01:57:52.375Z,101306.53
2019-03-22T02:00:13.371Z,101303.40
2019-03-22T02:02:39.402Z,101293.69
2019-03-22T02:05:06.233Z,101302.47
2019-03-22T02:07:32.160Z,101301.59
2019-03-22T02:09:58.009Z,101294.54
2019-03-22T02:12:23.840Z,101294.54
2019-03-22T02:14:49.677Z,101289.69
2019-03-22T02:17:15.603Z,101285.33
2019-03-22T02:19:41.557Z,101291.94
2019-03-22T02:22:07.496Z,101291.05
2019-03-22T02:24:33.429Z,101287.11
2019-03-22T02:26:59.377Z,101292.80
2019-03-22T02:29:25.209Z,101291.52
2019-03-22T02:31:51.037Z,101284.92
2019-03-22T02:34:16.959Z,101286.76
2019-03-22T02:36:42.782Z,101278.31
2019-03-22T02:39:08.633Z,101280.41
2019-03-22T02:41:38.349Z,101282.59
2019-03-22T02:44:04.297Z,101275.98
2019-03-22T02:46:30.120Z,101277.78
2019-03-22T02:48:56.009Z,101275.99
2019-03-22T02:51:21.828Z,101275.63
2019-03-22T02:53:47.664Z,101276.54
2019-03-22T02:56:13.838Z,101282.27
2019-03-22T02:58:39.988Z,101276.50
2019-03-22T03:01:06.105Z,101276.50
2019-03-22T03:03:32.094Z,101283.54
2019-03-22T03:05:58.132Z,101279.09
2019-03-22T03:08:23.982Z,101265.01
2019-03-22T03:10:49.972Z,101265.01
2019-03-22T03:13:15.824Z,101271.56
2019-03-22T03:15:41.690Z,101279.33
2019-03-22T03:18:07.673Z,101279.34
2019-03-22T03:20:33.619Z,101279.40
2019-03-22T03:22:59.445Z,101269.27
2019-03-22T03:25:25.510Z,101273.68
2019-03-22T03:27:51.454Z,101271.95
2019-03-22T03:30:18.737Z,101271.88
2019-03-22T03:32:44.871Z,101275.88
2019-03-22T03:35:11.154Z,101273.27
2019-03-22T03:37:37.149Z,101264.40
2019-03-22T03:40:06.178Z,101264.40
2019-03-22T03:42:32.300Z,101273.60
2019-03-22T03:44:58.182Z,101267.91
2019-03-22T03:47:24.025Z,101269.64
2019-03-22T03:49:49.873Z,101272.28
2019-03-22T03:52:15.800Z,101273.60
2019-03-22T03:54:41.631Z,101277.47
2019-03-22T03:57:07.479Z,101277.48
2019-03-22T03:59:33.337Z,101279.71
2019-03-22T04:01:59.307Z,101280.11
2019-03-22T04:04:25.289Z,101275.32
2019-03-22T04:06:51.199Z,101270.97
2019-03-22T04:09:17.032Z,101274.92
2019-03-22T04:11:43.001Z,101278.39
2019-03-22T04:14:08.838Z,101280.07
2019-03-22T04:16:34.800Z,101279.27
2019-03-22T04:19:00.751Z,101275.32
2019-03-22T04:21:26.580Z,101276.95
2019-03-22T04:23:52.542Z,101277.80
2019-03-22T04:26:18.498Z,101283.56
2019-03-22T04:28:44.334Z,101273.44
2019-03-22T04:31:10.307Z,101274.69
2019-03-22T04:33:36.112Z,101280.98
2019-03-22T04:36:02.753Z,101282.27
2019-03-22T04:38:28.568Z,101278.78
2019-03-22T04:40:54.408Z,101281.78
2019-03-22T04:43:20.448Z,101279.16
2019-03-22T04:45:47.083Z,101287.47
2019-03-22T04:48:16.752Z,101282.56
2019-03-22T04:50:44.870Z,101285.17
2019-03-22T04:53:14.506Z,101287.78
2019-03-22T04:55:44.258Z,101287.81
2019-03-22T04:58:12.113Z,101289.58
2019-03-22T05:00:38.451Z,101285.64
2019-03-22T05:03:05.758Z,101284.66
2019-03-22T05:05:31.773Z,101285.88
2019-03-22T05:07:57.825Z,101286.34
2019-03-22T05:10:24.810Z,101294.64
2019-03-22T05:12:51.964Z,101292.02
2019-03-22T05:15:19.509Z,101293.84
2019-03-22T05:17:46.377Z,101288.64
2019-03-22T05:20:13.722Z,101287.36
2019-03-22T05:22:41.489Z,101287.33
2019-03-22T05:25:09.237Z,101293.92
2019-03-22T05:27:38.773Z,101288.78
2019-03-22T05:30:08.386Z,101296.22
2019-03-22T05:32:34.374Z,101289.14
2019-03-22T05:35:00.439Z,101290.53
2019-03-22T05:37:26.430Z,101287.02
2019-03-22T05:39:52.250Z,101290.53
2019-03-22T05:42:18.118Z,101294.39
2019-03-22T05:44:44.068Z,101291.79
2019-03-22T05:47:09.891Z,101291.34
2019-03-22T05:49:35.758Z,101292.66
2019-03-22T05:52:01.670Z,101292.66
2019-03-22T05:54:27.591Z,101294.03
2019-03-22T05:56:53.419Z,101301.12
2019-03-22T05:59:19.385Z,101301.09
2019-03-22T06:01:45.603Z,101300.63
2019-03-22T06:04:11.638Z,101306.75
2019-03-22T06:06:37.456Z,101309.84
2019-03-22T06:09:06.192Z,101316.41
2019-03-22T06:11:32.203Z,101319.14
2019-03-22T06:13:58.057Z,101316.55
2019-03-22T06:16:23.997Z,101314.43
2019-03-22T06:18:50.550Z,101311.48
2019-03-22T06:21:16.644Z,101314.70
2019-03-22T06:23:42.468Z,101314.70
2019-03-22T06:26:08.545Z,101322.67
2019-03-22T06:28:34.467Z,101306.11
2019-03-22T06:31:00.323Z,101306.11
2019-03-22T06:33:26.260Z,101322.40
2019-03-22T06:35:52.210Z,101321.56
2019-03-22T06:38:18.113Z,101317.63
2019-03-22T06:40:43.958Z,101319.45
2019-03-22T06:43:09.837Z,101317.75
2019-03-22T06:45:35.899Z,101323.94
2019-03-22T06:48:01.839Z,101321.39
2019-03-22T06:50:27.697Z,101321.41
2019-03-22T06:52:53.580Z,101314.44
2019-03-22T06:55:19.535Z,101314.02
2019-03-22T06:57:45.381Z,101317.11
2019-03-22T07:00:12.257Z,101314.02
2019-03-22T07:02:38.222Z,101310.09
2019-03-22T07:05:05.167Z,101316.69
2019-03-22T07:07:30.988Z,101318.43
2019-03-22T07:09:56.810Z,101314.92
2019-03-22T07:12:22.873Z,101317.98
2019-03-22T07:14:48.711Z,101309.61
2019-03-22T07:17:14.624Z,101314.45
2019-03-22T07:19:40.536Z,101317.06
2019-03-22T07:22:06.456Z,101311.77
2019-03-22T07:24:32.331Z,101322.30
2019-03-22T07:26:58.195Z,101320.50
2019-03-22T07:29:24.171Z,101320.50
2019-03-22T07:31:50.498Z,101314.23
2019-03-22T07:34:16.380Z,101317.73
2019-03-22T07:36:42.220Z,101316.78
2019-03-22T07:39:08.210Z,101316.73
2019-03-22T07:41:34.257Z,101307.03
2019-03-22T07:44:00.130Z,101307.39
2019-03-22T07:46:25.963Z,101304.67
2019-03-22T07:48:51.834Z,101307.24
2019-03-22T07:51:17.685Z,101300.50
2019-03-22T07:53:43.531Z,101303.06
2019-03-22T07:56:09.378Z,101294.54
2019-03-22T07:58:35.467Z,101299.75
2019-03-22T08:01:01.294Z,101303.73
2019-03-22T08:03:27.150Z,101301.30
2019-03-22T08:05:53.112Z,101297.20
2019-03-22T08:08:18.935Z,101297.87
2019-03-22T08:10:44.789Z,101303.94
2019-03-22T08:13:10.753Z,101302.36
2019-03-22T08:15:36.771Z,101302.97
2019-03-22T08:18:03.211Z,101305.18
2019-03-22T08:20:29.308Z,101301.78
2019-03-22T08:22:55.334Z,101304.06
2019-03-22T08:25:21.179Z,101295.86
2019-03-22T08:27:47.368Z,101297.36
2019-03-22T08:30:13.427Z,101301.94
2019-03-22T08:32:39.392Z,101299.58
2019-03-22T08:35:05.362Z,101301.34
2019-03-22T08:37:31.128Z,101301.89
2019-03-22T08:39:57.100Z,101302.69
2019-03-22T08:42:22.939Z,101306.86
2019-03-22T08:44:48.817Z,101303.69
2019-03-22T08:47:14.718Z,101307.36
2019-03-22T08:49:40.656Z,101304.73
2019-03-22T08:52:06.854Z,101308.36
2019-03-22T08:54:32.804Z,101307.68
2019-03-22T08:56:58.656Z,101309.80
2019-03-22T08:59:24.489Z,101305.29
2019-03-22T09:01:50.311Z,101300.23
2019-03-22T09:04:16.155Z,101300.42
2019-03-22T09:06:42.123Z,101297.38
2019-03-22T09:09:08.153Z,101297.38
2019-03-22T09:11:34.072Z,101299.99
2019-03-22T09:13:59.964Z,101301.23
2019-03-22T09:16:25.876Z,101308.81
2019-03-22T09:18:51.832Z,101304.70
2019-03-22T09:21:17.656Z,101291.51
2019-03-22T09:23:43.653Z,101285.98
2019-03-22T09:26:09.527Z,101294.61
2019-03-22T09:28:36.349Z,101290.91
2019-03-22T09:31:10.256Z,101289.34
2019-03-22T09:33:32.237Z,101294.59
2019-03-22T09:35:58.064Z,101294.84
2019-03-22T09:38:23.903Z,101289.98
2019-03-22T09:40:50.009Z,101297.16
2019-03-22T09:43:15.825Z,101292.80
2019-03-22T09:45:45.277Z,101289.31
2019-03-22T09:48:11.285Z,101296.95
2019-03-22T09:50:37.325Z,101298.16
2019-03-22T09:53:03.179Z,101291.43
2019-03-22T09:55:29.059Z,101281.45
2019-03-22T09:57:55.002Z,101284.86
2019-03-22T10:00:33.607Z,101284.81
2019-03-22T10:03:00.504Z,101288.08
2019-03-22T10:05:26.506Z,101291.69
2019-03-22T10:07:52.453Z,101294.33
2019-03-22T10:10:18.311Z,101284.69
2019-03-22T10:12:44.234Z,101287.41
2019-03-22T10:15:10.197Z,101281.55
2019-03-22T10:17:36.041Z,101280.63
2019-03-22T10:20:04.242Z,101277.59
2019-03-22T10:22:30.150Z,101279.02
2019-03-22T10:24:56.025Z,101276.59
2019-03-22T10:27:21.893Z,101276.04
2019-03-22T10:29:47.909Z,101273.05
2019-03-22T10:32:13.862Z,101267.72
2019-03-22T10:34:39.988Z,101265.92
2019-03-22T10:37:05.848Z,101264.23
2019-03-22T10:39:31.721Z,101264.73
2019-03-22T10:41:58.056Z,101260.27
2019-03-22T10:44:23.900Z,101254.63
2019-03-22T10:46:49.856Z,101252.20
2019-03-22T10:49:15.867Z,101248.27
2019-03-22T10:51:41.837Z,101240.37
2019-03-22T10:54:07.696Z,101241.23
2019-03-22T10:56:34.253Z,101247.13
2019-03-22T10:59:00.204Z,101249.38
2019-03-22T11:01:26.287Z,101241.19
2019-03-22T11:03:52.441Z,101229.77
2019-03-22T11:06:25.938Z,101234.38
2019-03-22T11:08:46.436Z,101231.39
2019-03-22T11:11:12.439Z,101224.78
2019-03-22T11:13:38.364Z,101233.89
2019-03-22T11:16:04.433Z,101227.48
2019-03-22T11:18:37.265Z,101228.11
2019-03-22T11:21:05.126Z,101227.58
2019-03-22T11:23:25.796Z,101228.17
2019-03-22T11:25:51.787Z,101223.49
2019-03-22T11:28:17.558Z,101221.14
2019-03-22T11:30:43.435Z,101221.11
2019-03-22T11:33:09.276Z,101212.33
2019-03-22T11:35:37.138Z,101219.39
2019-03-22T11:38:03.072Z,101216.87
2019-03-22T11:40:29.037Z,101202.16
2019-03-22T11:42:55.069Z,101206.39
2019-03-22T11:45:22.141Z,101207.06
2019-03-22T11:47:48.213Z,101200.48
2019-03-22T11:50:14.195Z,101197.07
2019-03-22T11:52:40.224Z,101188.38
2019-03-22T11:55:08.831Z,101190.04
2019-03-22T11:57:34.876Z,101182.61
2019-03-22T12:00:00.997Z,101183.20
2019-03-22T12:02:26.973Z,101178.08
2019-03-22T12:04:53.023Z,101176.20
2019-03-22T12:07:18.932Z,101178.11
2019-03-22T12:09:44.872Z,101177.14
2019-03-22T12:12:10.922Z,101165.75
2019-03-22T12:14:36.756Z,101163.79
2019-03-22T12:17:02.744Z,101160.25
2019-03-22T12:19:28.584Z,101155.89
2019-03-22T12:21:54.423Z,101151.52
2019-03-22T12:24:20.336Z,101144.77
2019-03-22T12:26:46.185Z,101138.87
2019-03-22T12:29:12.039Z,101139.55
2019-03-22T12:31:38.487Z,101136.19
2019-03-22T12:34:04.523Z,101128.02
2019-03-22T12:36:30.518Z,101127.50
2019-03-22T12:38:56.592Z,101122.61
2019-03-22T12:41:22.416Z,101117.84
2019-03-22T12:43:48.325Z,101123.75
2019-03-22T12:46:14.154Z,101117.91
2019-03-22T12:48:40.129Z,101111.58
2019-03-22T12:51:06.148Z,101115.05
2019-03-22T12:53:31.980Z,101110.36
2019-03-22T12:55:57.790Z,101103.83
2019-03-22T12:58:23.797Z,101094.83
2019-03-22T13:00:49.732Z,101091.94
2019-03-22T13:03:15.698Z,101081.69
2019-03-22T13:05:41.687Z,101080.00
2019-03-22T13:08:07.509Z,101085.11
2019-03-22T13:10:33.543Z,101072.66
2019-03-22T13:12:59.438Z,101067.06
2019-03-22T13:15:25.377Z,101075.65
2019-03-22T13:17:51.452Z,101065.62
2019-03-22T13:20:17.353Z,101070.22
2019-03-22T13:22:43.370Z,101071.56
2019-03-22T13:25:11.190Z,101068.24
2019-03-22T13:27:37.198Z,101060.06
2019-03-22T13:30:06.157Z,101063.43
2019-03-22T13:32:32.002Z,101057.94
2019-03-22T13:34:57.880Z,101051.14
2019-03-22T13:37:23.820Z,101054.98
2019-03-22T13:39:49.658Z,101057.05
2019-03-22T13:42:15.653Z,101059.70
2019-03-22T13:44:41.471Z,101062.00
2019-03-22T13:47:07.305Z,101060.67
2019-03-22T13:49:33.230Z,101066.01
2019-03-22T13:51:59.331Z,101067.98
2019-03-22T13:54:25.181Z,101062.28
2019-03-22T13:56:51.030Z,101058.58
2019-03-22T13:59:16.980Z,101060.92
2019-03-22T14:01:42.952Z,101054.11
2019-03-22T14:04:08.808Z,101053.72
2019-03-22T14:06:34.986Z,101055.55
2019-03-22T14:09:00.810Z,101059.61
2019-03-22T14:11:26.651Z,101041.66
2019-03-22T14:13:52.555Z,101042.86
2019-03-22T14:16:18.502Z,101033.77
2019-03-22T14:18:44.331Z,101037.11
2019-03-22T14:21:10.298Z,101039.66
2019-03-22T14:23:36.252Z,101028.63
2019-03-22T14:26:02.445Z,101036.69
2019-03-22T14:28:28.306Z,101030.16
2019-03-22T14:30:54.265Z,101022.66
2019-03-22T14:33:20.197Z,101011.09
2019-03-22T14:35:47.815Z,101003.36
2019-03-22T14:38:13.771Z,100991.36
2019-03-22T14:40:39.731Z,100988.20
2019-03-22T14:43:05.615Z,100978.29
2019-03-22T14:45:31.665Z,100970.78
2019-03-22T14:47:57.494Z,100960.88
2019-03-22T14:50:23.310Z,100953.17
2019-03-22T14:52:49.216Z,100954.35
2019-03-22T14:55:15.272Z,100953.15
2019-03-22T14:57:49.062Z,100952.95
2019-03-22T15:00:11.103Z,100941.69
2019-03-22T15:02:36.952Z,100939.29
2019-03-22T15:05:04.918Z,100935.58
2019-03-22T15:07:30.859Z,100927.48
2019-03-22T15:09:56.773Z,100934.70
2019-03-22T15:12:22.758Z,100934.59
2019-03-22T15:14:50.603Z,100925.69
2019-03-22T15:17:36.468Z,100935.83
2019-03-22T15:20:08.425Z,100937.11
2019-03-22T15:22:53.300Z,100924.55
2019-03-22T15:25:39.499Z,100926.52
2019-03-22T15:28:07.433Z,100923.80
2019-03-22T15:30:51.715Z,100920.62
2019-03-22T15:33:36.114Z,100923.49
2019-03-22T15:36:06.594Z,100915.51
2019-03-22T15:38:34.627Z,100919.23
2019-03-22T15:41:00.759Z,100904.52
2019-03-22T15:43:26.590Z,100898.69
2019-03-22T15:45:53.659Z,100900.02
2019-03-22T15:48:19.584Z,100898.65
2019-03-22T15:50:45.509Z,100903.23
2019-03-22T15:53:11.479Z,100899.48
2019-03-22T15:55:37.360Z,100901.86
2019-03-22T15:58:03.405Z,100899.13
2019-03-22T16:00:32.526Z,100893.93
2019-03-22T16:02:58.471Z,100895.39
2019-03-22T16:05:24.411Z,100895.37
2019-03-22T16:07:50.442Z,100897.38
2019-03-22T16:10:16.494Z,100898.06
2019-03-22T16:12:42.493Z,100897.03
2019-03-22T16:15:11.447Z,100896.62
2019-03-22T16:17:37.309Z,100891.41
2019-03-22T16:20:06.316Z,100898.59
2019-03-22T16:22:32.145Z,100890.18
2019-03-22T16:24:57.975Z,100895.63
2019-03-22T16:27:23.988Z,100901.81
2019-03-22T16:29:49.813Z,100898.88
2019-03-22T16:32:15.754Z,100899.88
2019-03-22T16:34:41.813Z,100890.51
2019-03-22T16:37:07.669Z,100883.00
2019-03-22T16:39:33.626Z,100886.73
2019-03-22T16:41:59.921Z,100889.53
2019-03-22T16:44:25.854Z,100887.66
2019-03-22T16:46:51.793Z,100889.16
2019-03-22T16:49:17.730Z,100886.52
2019-03-22T16:51:43.656Z,100878.81
2019-03-22T16:54:09.503Z,100882.70
2019-03-22T16:56:35.394Z,100891.86
2019-03-22T16:59:01.444Z,100891.05
2019-03-22T17:01:27.284Z,100888.55
2019-03-22T17:03:53.237Z,100897.02
2019-03-22T17:06:19.099Z,100893.45
2019-03-22T17:08:44.952Z,100894.95
2019-03-22T17:11:10.929Z,100889.72
2019-03-22T17:13:36.983Z,100894.67
2019-03-22T17:16:03.064Z,100897.69
2019-03-22T17:18:29.235Z,100895.97
2019-03-22T17:20:55.093Z,100898.64
2019-03-22T17:23:21.101Z,100897.67
2019-03-22T17:25:46.987Z,100899.84
2019-03-22T17:28:12.844Z,100899.66
2019-03-22T17:30:38.768Z,100903.29
2019-03-22T17:33:04.745Z,100910.30
2019-03-22T17:35:30.577Z,100906.90
2019-03-22T17:37:56.425Z,100910.72
2019-03-22T17:40:22.568Z,100908.05
2019-03-22T17:42:48.369Z,100909.06
2019-03-22T17:45:16.121Z,100912.06
2019-03-22T17:47:42.240Z,100910.41
2019-03-22T17:50:10.515Z,100905.77
2019-03-22T17:52:36.472Z,100917.73
2019-03-22T17:55:04.942Z,100911.44
2019-03-22T17:57:30.827Z,100915.12
2019-03-22T17:59:56.647Z,100913.05
2019-03-22T18:02:22.489Z,100911.48
2019-03-22T18:04:48.314Z,100911.91
2019-03-22T18:07:14.347Z,100911.84
2019-03-22T18:09:40.182Z,100910.89
2019-03-22T18:12:06.116Z,100915.42
2019-03-22T18:14:32.108Z,100919.63
2019-03-22T18:16:57.953Z,100927.39
2019-03-22T18:19:23.815Z,100930.02
2019-03-22T18:21:49.815Z,100931.27
2019-03-22T18:24:15.670Z,100933.92
2019-03-22T18:26:41.483Z,100934.88
2019-03-22T18:29:07.579Z,100932.34
2019-03-22T18:31:33.434Z,100938.67
2019-03-22T18:33:59.272Z,100931.66
2019-03-22T18:36:25.134Z,100927.66
2019-03-22T18:38:51.011Z,100933.89
2019-03-22T18:41:16.858Z,100933.11
2019-03-22T18:43:42.775Z,100945.27
2019-03-22T18:46:08.608Z,100941.95
2019-03-22T18:48:34.454Z,100943.98
2019-03-22T18:51:00.313Z,100941.92
2019-03-22T18:53:26.239Z,100945.75
2019-03-22T18:55:52.218Z,100939.92
2019-03-22T18:58:18.061Z,100944.70
2019-03-22T19:00:43.938Z,100943.44
2019-03-22T19:03:09.822Z,100945.36
2019-03-22T19:05:35.684Z,100944.68
2019-03-22T19:08:02.119Z,100939.23
2019-03-22T19:10:27.942Z,100937.31
2019-03-22T19:12:53.774Z,100937.72
2019-03-22T19:15:19.841Z,100933.30
2019-03-22T19:17:45.985Z,100936.06
2019-03-22T19:20:13.702Z,100941.64
2019-03-22T19:22:39.696Z,100937.80
2019-03-22T19:25:06.724Z,100945.45
2019-03-22T19:27:32.582Z,100955.11
2019-03-22T19:29:58.516Z,100956.66
2019-03-22T19:32:24.429Z,100956.81
2019-03-22T19:34:54.262Z,100964.24
2019-03-22T19:37:18.232Z,100965.50
2019-03-22T19:39:44.040Z,100962.48
2019-03-22T19:42:09.913Z,100955.42
2019-03-22T19:44:35.870Z,100950.31
2019-03-22T19:47:03.714Z,100951.80
2019-03-22T19:49:29.570Z,100952.33
2019-03-22T19:51:55.414Z,100953.30
2019-03-22T19:54:21.310Z,100955.16
2019-03-22T19:56:47.165Z,100959.48
2019-03-22T19:59:13.000Z,100961.24
2019-03-22T20:01:39.128Z,100956.89
2019-03-22T20:04:05.866Z,100957.19
2019-03-22T20:06:31.799Z,100959.48
2019-03-22T20:08:57.661Z,100963.59
2019-03-22T20:11:23.513Z,100971.20
2019-03-22T20:13:49.550Z,100980.86
2019-03-22T20:16:15.554Z,100979.90
2019-03-22T20:18:41.384Z,100979.92
2019-03-22T20:21:07.249Z,100982.68
2019-03-22T20:23:33.141Z,100975.48
2019-03-22T20:25:59.183Z,100977.02
2019-03-22T20:28:25.010Z,100976.57
2019-03-22T20:30:50.843Z,100977.64
2019-03-22T20:33:16.709Z,100979.75
2019-03-22T20:35:42.585Z,100988.02
2019-03-22T20:38:08.538Z,100988.53
2019-03-22T20:40:34.484Z,100992.36
2019-03-22T20:43:00.445Z,100990.24
2019-03-22T20:45:26.276Z,100994.22
2019-03-22T20:47:52.428Z,100987.47
2019-03-22T20:50:18.270Z,100984.94
2019-03-22T20:52:44.349Z,100988.40
2019-03-22T20:55:10.416Z,100989.73
2019-03-22T20:57:36.422Z,100986.29
2019-03-22T21:00:08.550Z,100991.70
2019-03-22T21:02:34.423Z,100989.59
2019-03-22T21:05:00.356Z,100986.63
2019-03-22T21:07:26.353Z,100992.92
2019-03-22T21:09:52.221Z,100981.79
2019-03-22T21:12:18.172Z,100988.12
2019-03-22T21:14:44.055Z,100983.42
2019-03-22T21:17:09.909Z,100983.66
2019-03-22T21:19:35.891Z,100978.05
2019-03-22T21:22:01.756Z,100982.63
2019-03-22T21:24:27.589Z,100982.81
2019-03-22T21:26:53.478Z,100979.05
2019-03-22T21:29:19.332Z,100980.43
2019-03-22T21:31:45.200Z,100979.13
2019-03-22T21:34:11.209Z,100981.47
2019-03-22T21:36:37.034Z,100972.50
2019-03-22T21:39:05.193Z,100967.86
2019-03-22T21:41:31.065Z,100977.55
2019-03-22T21:43:56.919Z,100979.92
2019-03-22T21:46:23.024Z,100983.67
2019-03-22T21:48:48.884Z,100973.31
2019-03-22T21:51:14.815Z,100981.45
2019-03-22T21:53:40.756Z,100981.92
2019-03-22T21:56:06.722Z,100978.59
2019-03-22T21:58:32.708Z,100980.56
2019-03-22T22:00:58.540Z,100978.96
2019-03-22T22:03:28.289Z,100977.17
2019-03-22T22:05:54.338Z,100971.36
2019-03-22T22:08:20.179Z,100980.08
2019-03-22T22:10:46.284Z,100979.72
2019-03-22T22:13:12.173Z,100975.25
2019-03-22T22:15:38.066Z,100978.74
2019-03-22T22:18:03.985Z,100974.42
2019-03-22T22:20:29.823Z,100974.77
2019-03-22T22:22:55.655Z,100973.91
2019-03-22T22:25:21.592Z,100978.06
2019-03-22T22:27:47.586Z,100980.45
2019-03-22T22:30:13.717Z,100980.48
2019-03-22T22:32:39.648Z,100981.84
2019-03-22T22:35:06.900Z,100989.00
2019-03-22T22:37:32.871Z,100984.23
2019-03-22T22:39:58.714Z,100985.55
2019-03-22T22:42:24.648Z,100981.55
2019-03-22T22:44:50.602Z,100979.41
2019-03-22T22:47:16.428Z,100981.66
2019-03-22T22:49:42.267Z,100981.22
2019-03-22T22:52:08.164Z,100981.61
2019-03-22T22:54:34.226Z,100981.67
2019-03-22T22:57:00.152Z,100976.39
2019-03-22T22:59:26.122Z,100984.78
2019-03-22T23:01:52.037Z,100983.00
2019-03-22T23:04:18.025Z,100982.75
2019-03-22T23:06:44.065Z,100980.02
2019-03-22T23:09:10.023Z,100984.59
2019-03-22T23:11:35.833Z,100981.51
2019-03-22T23:14:01.912Z,100984.17
2019-03-22T23:16:27.868Z,100976.63
2019-03-22T23:18:53.697Z,100981.16
2019-03-22T23:21:19.697Z,100980.32
2019-03-22T23:23:45.525Z,100978.52
2019-03-22T23:26:11.471Z,100976.35
2019-03-22T23:28:37.425Z,100976.45
2019-03-22T23:31:03.268Z,100972.53
2019-03-22T23:33:36.783Z,100971.59
2019-03-22T23:36:02.927Z,100971.31
2019-03-22T23:38:28.866Z,100965.19
2019-03-22T23:40:54.718Z,100963.03
2019-03-22T23:43:20.889Z,100959.11
2019-03-22T23:45:46.720Z,100955.56
2019-03-22T23:48:12.569Z,100953.78
2019-03-22T23:50:38.569Z,100950.84
2019-03-22T23:53:04.709Z,100947.72
2019-03-22T23:55:30.562Z,100950.38
2019-03-22T23:57:56.635Z,100946.21
